Create Custom Reports and Graphics: Custom Report

Alpine-Roundhouse Btm 6950'

Current Conditions

11/26/20 4:15 AM (-08:00)
Updated Every 15 Minutes
Temp 22.8 °F   11.8
RH 83 %   12
Wet Bulb 21.2 °F   9.7
Dew Pt 18.3 °F   7.6
Wind Spd 3.0 mph
Wind Dir NNW | 333 °
Wind Gust 8.9 mph   8.6
WindChill 22.8 °F   3.5
Barometric Pressure 30.11 inHg   0.08
Daily Min Temp 19.8 °F   14.4
Daily Max Temp 22.9 °F   14.9
Latest Rain 0.00 In
Daily Rain 0.00 In
New Snow 0.3 in
SnowDepth 16.7 in

Last 6 Hours

Alpine-Roundhouse Btm 6950'

15 Minute Data | America/Los_Angeles
as of 11/26/20 4:22 AM PST
Date & Time Temp (°F) RH (%) Dew Pt (°F) Wet Bulb (°F) Wind Dir (°) Wind Spd (mph) Wind Gust (mph) WindChill (°F) Barometric Pressure (inHg) New Snow (in) SnowDepth (in) Latest Rain (In) Daily Rain (In) Daily Min Temp (°F) Daily Max Temp (°F)
11/26/20 - 0415 22.8 83 18.3 21.2 NNW | 333 3.0 8.9 22.8 30.11 0.3 16.7 0.00 0.00 19.8 22.9
11/26/20 - 0400 22.1 81 17.2 20.4 NNW | 332 1.7 6.3 17.5 30.12 0.2 16.5 0.00 0.00 19.8 22.9
11/26/20 - 0345 21.1 85 17.2 19.8 WNW | 297 1.5 4.8 21.1 30.12 0.2 16.6 0.00 0.00 19.8 22.9
11/26/20 - 0330 20.3 86 16.7 19.0 WSW | 237 0.5 2.7 20.3 30.13 0.3 16.7 0.00 0.00 19.8 22.9
11/26/20 - 0315 20.5 87 17.3 19.4 SSW | 209 0.7 3.0 20.5 30.12 0.3 16.6 0.00 0.00 19.8 22.9
11/26/20 - 0300 20.5 89 17.7 19.5 SW | 229 1.0 3.6 20.5 30.12 0.3 16.7 0.00 0.00 19.8 22.9
11/26/20 - 0245 19.9 88 16.8 18.8 SW | 216 0.6 3.3 19.9 30.13 0.2 16.4 0.00 0.00 19.9 22.9
11/26/20 - 0230 21.1 85 17.3 19.8 SE | 133 0.0 1.3 21.1 30.13 0.2 16.5 0.00 0.00 20.0 22.9
11/26/20 - 0215 21.1 87 17.8 20.0 SSW | 212 0.8 3.8 21.1 30.12 0.3 16.6 0.00 0.00 20.0 22.9
11/26/20 - 0200 20.0 89 17.2 19.0 SSW | 213 1.1 4.1 20.0 30.12 0.3 16.6 0.00 0.00 20.0 22.9
11/26/20 - 0145 21.4 87 18.0 20.2 N | 351 0.4 2.7 21.4 30.13 0.2 16.5 0.00 0.00 20.5 22.9
11/26/20 - 0130 21.0 89 18.3 20.0 SW | 219 1.9 4.1 21.0 30.13 0.4 16.9 0.00 0.00 20.5 22.9
11/26/20 - 0115 20.8 88 17.7 19.7 SSW | 213 1.9 4.4 20.8 30.14 0.3 16.6 0.00 0.00 20.5 22.9
11/26/20 - 0100 20.9 86 17.3 19.7 SSW | 206 1.2 3.3 20.9 30.13 0.3 16.5 0.00 0.00 20.9 22.9
11/26/20 - 0045 21.5 84 17.6 20.2 SW | 218 2.1 5.6 21.5 30.14 0.3 16.5 0.00 0.00 21.5 22.9
11/26/20 - 0030 22.2 84 18.1 20.8 WNW | 290 0.4 2.7 22.2 30.13 0.2 16.5 0.00 0.00 21.7 22.9
11/26/20 - 0015 22.5 85 18.8 21.2 SSW | 213 2.2 5.3 22.5 30.14 0.3 16.6 0.00 0.00 21.7 22.5
11/26/20 - 0000 22.0 82 17.5 20.5 SW | 219 0.8 4.4 22.0 30.13 0.2 16.6 0.00 0.00 22.0 37.9
11/25/20 - 2345 22.1 83 17.6 20.5 SSW | 212 1.2 4.2 22.1 30.12 0.2 16.6 0.00 0.00 22.1 37.9
11/25/20 - 2330 22.7 82 18.0 21.0 SSW | 211 0.7 3.7 22.7 30.12 0.2 16.4 0.00 0.00 22.7 37.9
11/25/20 - 2315 22.8 80 17.5 21.0 SW | 218 1.3 3.7 22.8 30.12 0.3 16.6 0.00 0.00 22.8 37.9
11/25/20 - 2300 23.6 80 18.4 21.8 SW | 216 2.6 4.6 23.6 30.12 0.3 16.7 0.00 0.00 23.3 37.9
11/25/20 - 2245 24.0 80 18.6 22.1 SW | 222 0.8 2.7 24.0 30.11 0.3 16.7 0.00 0.00 23.8 37.9
11/25/20 - 2230 24.4 79 18.8 22.4 SSW | 212 1.7 3.8 24.4 30.11 0.3 16.6 0.00 0.00 24.3 37.9
Max 24.4 89 18.8 22.4 - 3.0 8.9 24.4 30.14 0.4 16.9 0.00 0.00 24.3 37.9
Avg 21.7 84 17.7 20.3 - 1.3 4.0 21.5 30.12 0.3 16.6 0.00 - - -
Min 19.9 79 16.7 18.8 - 0.0 1.3 17.5 30.11 0.2 16.4 0.00 0.00 19.8 22.5
Total - - - - - - - - - - - 0.00 - - -

Last 30 Days

Alpine-Roundhouse Btm 6950'

Daily Data | America/Los_Angeles
as of 11/26/20 4:22 AM PST
Date Daily Max Temp (°F) Time of Max Temp Daily Min Temp (°F) Time of Min Temp Wind Spd (mph) Daily Max Wind (mph) Max Wind Dir (°) Time of Max Wind Daily Rain (In) Seasonal Rainfall (In) SnowDepth (in) Max RH (%) Min RH (%) Wet Bulb (°F) WetB Hrs <28F (hrs) Min Press (inHg) Time of Min Press Bat Volt Min Day (V)
11/25/20 37.9 0001 22.0 2346 4.8 26.5 SE | 138 0241 0.00 4.22 16.6 89 60 28.9 6.6 30.01 0425 13.1
11/24/20 43.7 2053 25.2 0640 2.1 21.2 SE | 129 2340 0.00 4.22 17.1 95 41 30.4 8.6 30.05 2350 13.1
11/23/20 41.9 1125 27.1 0713 2.1 15.4 SSE | 158 0045 0.01 4.22 16.9 93 41 29.4 8.8 29.94 0025 13.1
11/22/20 47.0 1122 30.7 0002 2.8 22.5 SSE | 168 2101 0.01 4.21 17.0 90 29 31.4 0.2 29.94 2335 13.2
11/21/20 41.2 1129 25.3 0752 1.9 6.3 SSW | 204 1434 0.00 4.20 17.1 98 64 29.8 8.6 30.18 2325 13.0
11/20/20 39.2 1324 24.2 0652 1.5 5.4 SSW | 208 1448 0.00 4.20 17.6 95 66 28.9 13.1 30.21 1530 13.2
11/19/20 37.9 1131 27.0 2330 3.0 20.0 SSE | 150 0017 0.00 4.20 18.0 96 50 28.4 11.1 30.10 0055 13.2
11/18/20 36.6 1044 31.4 2355 4.2 25.0 SSE | 157 1036 2.10 4.20 18.4 100 89 33.4 0.0 29.89 0550 13.1
11/17/20 53.2 0001 33.1 2347 6.4 27.4 SSE | 157 0619 0.87 2.10 13.3 100 24 35.1 0.0 29.94 1550 13.1
11/16/20 61.4 1130 39.3 0731 2.7 24.5 SSE | 165 2328 0.00 1.23 8.8 54 14 37.3 0.0 30.06 2345 13.2
11/15/20 46.3 1150 35.6 0035 4.1 19.9 SE | 143 0259 0.23 1.23 9.5 71 20 33.0 7.1 30.19 0300 13.0
11/14/20 38.8 1116 23.7 0735 3.8 20.2 SSE | 164 1509 0.04 1.00 9.5 98 24 27.9 10.8 30.08 0001 13.2
11/13/20 35.1 1726 29.9 0947 7.0 35.9 SSE | 150 1416 0.03 0.96 10.6 99 34 30.4 3.2 29.89 1525 13.1
11/12/20 44.4 1126 25.4 0410 4.1 21.5 SSE | 150 1530 0.01 0.93 6.5 81 20 26.0 15.7 30.02 0400 12.5
11/11/20 41.6 1129 26.1 2359 4.2 19.6 S | 172 0033 0.00 0.92 6.8 74 23 25.8 17.9 30.01 1700 13.2
11/10/20 42.4 1227 20.3 0146 2.8 16.6 SSE | 162 2351 0.01 0.92 6.8 99 28 27.2 14.9 30.04 2350 12.5
11/9/20 29.9 1022 15.2 0216 1.6 10.9 SE | 126 1233 0.03 0.91 7.9 98 94 20.8 22.9 29.86 0001 13.0
11/8/20 26.8 0005 15.5 2357 2.2 22.0 NNW | 340 0125 0.34 0.88 9.0 98 94 20.1 24.0 29.58 0040 13.1
11/7/20 32.7 1107 20.0 0707 3.6 26.9 S | 172 2026 0.29 0.54 4.8 98 65 24.7 23.9 29.59 2330 13.1
11/6/20 50.9 0003 24.6 2359 5.6 28.1 SSE | 156 0627 0.15 0.25 0.7 94 37 32.1 9.8 29.64 2050 13.0
11/5/20 68.7 1225 44.3 0720 2.7 19.1 SE | 146 1513 0.00 0.10 1.0 40 14 39.5 0.0 30.00 2355 13.1
11/4/20 64.2 1225 44.0 0730 2.4 11.3 SE | 135 1150 0.00 0.10 2.2 51 11 38.6 0.0 30.26 0220 13.1
11/3/20 62.6 1128 45.2 0629 2.5 17.4 SSE | 165 1251 0.00 0.10 1.4 41 17 37.3 0.0 30.20 1410 13.1
11/2/20 68.5 1219 45.2 0609 2.1 10.7 S | 190 1511 0.00 0.10 1.6 34 12 38.4 0.0 30.23 1630 13.1
11/1/20 67.5 1257 46.2 0715 2.1 9.5 SSW | 200 1438 0.00 0.10 1.5 31 13 37.7 0.0 30.31 1330 13.1
10/31/20 67.2 1537 43.5 0636 1.9 7.7 SSW | 202 1445 0.00 0.10 1.8 36 15 37.6 0.0 30.22 0045 13.1
10/30/20 66.7 1155 41.9 0730 2.3 12.7 S | 173 1516 0.00 0.10 1.4 30 11 36.0 0.0 30.18 1515 13.1
10/29/20 64.2 1533 42.0 0444 1.9 11.8 N | 4 1212 0.08 0.10 1.1 31 9 34.8 0.0 30.21 1610 13.1
10/28/20 64.4 1523 39.2 0316 1.8 11.5 N | 3 1326 0.00 0.02 1.7 47 7 35.3 0.0 30.23 1645 13.2
10/27/20 54.4 1532 30.0 0557 2.7 22.5 NNW | 342 0946 0.00 0.02 3.5 65 21 32.6 8.0 30.21 0435 13.2
Max 68.7 - 46.2 - 7.0 35.9 - - 2.10 - 18.4 100 94 39.5 24.0 30.31 - 13.2
Avg - - - - 3.1 - - - - - 8.3 - - 31.6 - - - -
Min 26.8 - 15.2 - 1.5 5.4 - - 0.00 - 0.7 30 7 20.1 0.0 29.58 - 12.5
Calm: 0.0%
Calm: 0.0%